Time;durP1;ratioP1;P1;durP2;ratioP2;P2;SDS_P1;SDS_P2;PMS_P1;PMS_P2;Temp;Humidity;BMP_temperature;BMP_pressure;BME280_temperature;BME280_humidity;BME280_pressure;Samples;Min_cycle;Max_cycle;Signal;HPM_P1;HPM_P2
2023/04/09 00:01:09;;;;;;;61.50;38.20;;;9.50;99.90;;;;;;5073040;28;20040;-83
2023/04/09 00:03:36;;;;;;;54.63;35.55;;;9.40;99.90;;;;;;5073195;28;20089;-82
2023/04/09 00:06:02;;;;;;;59.97;36.67;;;9.40;99.90;;;;;;5073064;28;20433;-81
2023/04/09 00:08:28;;;;;;;56.92;34.90;;;9.40;99.90;;;;;;5071792;28;20181;-83
2023/04/09 00:10:55;;;;;;;57.42;34.67;;;9.40;99.90;;;;;;5072987;28;20080;-81
2023/04/09 00:13:21;;;;;;;58.53;35.00;;;9.40;99.90;;;;;;5071904;28;20115;-81
2023/04/09 00:15:47;;;;;;;51.35;34.88;;;9.30;99.90;;;;;;5073060;28;20135;-82
2023/04/09 00:18:18;;;;;;;47.75;31.38;;;9.30;99.90;;;;;;5056979;28;20380;-81
2023/04/09 00:20:44;;;;;;;47.92;30.55;;;9.30;99.90;;;;;;5072739;28;20124;-82
2023/04/09 00:23:10;;;;;;;43.20;29.98;;;9.30;99.90;;;;;;5088683;28;20123;-84
2023/04/09 00:25:36;;;;;;;43.15;27.70;;;9.30;99.90;;;;;;5072745;28;20074;-83
2023/04/09 00:28:02;;;;;;;41.95;26.85;;;9.20;99.90;;;;;;5072829;28;20430;-84
2023/04/09 00:30:28;;;;;;;38.67;25.92;;;9.20;99.90;;;;;;5071790;28;20147;-79
2023/04/09 00:32:54;;;;;;;41.90;26.77;;;9.20;99.90;;;;;;5071621;28;20419;-81
2023/04/09 00:35:20;;;;;;;44.42;25.23;;;9.20;99.90;;;;;;5074457;28;20051;-81
2023/04/09 00:37:46;;;;;;;38.15;25.35;;;9.20;99.90;;;;;;5083126;28;20055;-79
2023/04/09 00:40:12;;;;;;;38.08;24.52;;;9.20;99.90;;;;;;5083051;28;20052;-82
2023/04/09 00:42:37;;;;;;;36.33;22.83;;;9.20;99.90;;;;;;5083694;28;20040;-78
2023/04/09 00:45:05;;;;;;;31.00;20.42;;;9.20;99.90;;;;;;5080109;28;20339;-78
2023/04/09 00:47:31;;;;;;;28.77;19.75;;;9.30;99.90;;;;;;5073294;28;20052;-83
2023/04/09 00:49:57;;;;;;;27.45;19.92;;;9.30;99.90;;;;;;5072797;28;20044;-82
2023/04/09 00:52:23;;;;;;;35.42;19.33;;;9.30;99.90;;;;;;5073547;28;20045;-80
2023/04/09 00:54:50;;;;;;;26.77;18.73;;;9.30;99.90;;;;;;5072652;28;20041;-79
2023/04/09 00:57:16;;;;;;;30.80;19.35;;;9.30;99.90;;;;;;5073206;28;20051;-82
2023/04/09 00:59:43;;;;;;;30.65;20.02;;;9.30;99.90;;;;;;5071844;28;20056;-81
2023/04/09 01:02:09;;;;;;;26.33;18.55;;;9.30;99.90;;;;;;5072685;28;20044;-82
2023/04/09 01:04:36;;;;;;;23.02;16.40;;;9.30;99.90;;;;;;5072585;28;20428;-82
2023/04/09 01:07:27;;;;;;;29.55;19.20;;;9.10;99.90;;;;;;5072500;28;20114;-81
2023/04/09 01:10:11;;;;;;;26.35;17.95;;;9.40;99.90;;;;;;5072689;28;20387;-84
2023/04/09 01:12:58;;;;;;;34.17;21.35;;;9.40;99.90;;;;;;5072552;28;20040;-82
2023/04/09 01:15:32;;;;;;;33.58;22.08;;;9.40;99.90;;;;;;5072453;28;20040;-80
2023/04/09 01:18:04;;;;;;;28.33;19.75;;;9.40;99.90;;;;;;5071136;28;20118;-79
2023/04/09 01:20:37;;;;;;;28.13;19.67;;;9.30;99.90;;;;;;5072725;28;20048;-82
2023/04/09 01:23:09;;;;;;;;;;;9.40;99.90;;;;;;5073104;28;20139;-83
2023/04/09 01:26:01;;;;;;;36.42;21.50;;;9.40;99.90;;;;;;5072334;28;20067;-79
2023/04/09 01:28:30;;;;;;;31.05;21.08;;;9.40;99.90;;;;;;5072548;28;20051;-83
2023/04/09 01:31:00;;;;;;;30.85;21.20;;;9.30;99.90;;;;;;5072426;28;20061;-82
2023/04/09 01:33:28;;;;;;;31.67;21.50;;;9.40;99.90;;;;;;5076497;28;20067;-78
2023/04/09 01:35:55;;;;;;;28.25;20.80;;;9.30;99.90;;;;;;5076045;28;20075;-78
2023/04/09 01:38:22;;;;;;;31.67;21.73;;;9.40;99.90;;;;;;5076063;28;20131;-84
2023/04/09 01:40:49;;;;;;;34.28;21.85;;;9.40;99.90;;;;;;5075864;28;20048;-84
2023/04/09 01:43:16;;;;;;;35.15;21.67;;;9.40;99.90;;;;;;5074768;28;20055;-81
2023/04/09 01:45:44;;;;;;;32.42;21.00;;;9.50;99.90;;;;;;5074275;28;20135;-82
2023/04/09 01:48:11;;;;;;;32.65;22.05;;;9.40;99.90;;;;;;5076098;28;20103;-82
2023/04/09 01:50:37;;;;;;;37.72;21.65;;;9.40;99.90;;;;;;5075744;28;20052;-81
2023/04/09 01:53:03;;;;;;;34.03;21.77;;;9.40;99.90;;;;;;5075671;28;20051;-84
2023/04/09 01:55:29;;;;;;;29.33;20.02;;;9.40;99.90;;;;;;5075768;28;20048;-81
2023/04/09 01:57:55;;;;;;;30.40;21.80;;;9.40;99.90;;;;;;5075728;28;20507;-82
2023/04/09 02:00:22;;;;;;;33.20;21.55;;;9.40;99.90;;;;;;5075489;28;20055;-82
2023/04/09 02:03:05;;;;;;;33.10;23.15;;;9.30;99.90;;;;;;5075316;28;20462;-83
2023/04/09 02:05:37;;;;;;;32.42;22.88;;;9.30;99.90;;;;;;5075483;28;20048;-82
2023/04/09 02:08:08;;;;;;;36.22;21.40;;;9.30;99.90;;;;;;5074920;28;20097;-85
2023/04/09 02:10:38;;;;;;;35.70;21.75;;;9.30;99.90;;;;;;5108047;28;20041;-80
2023/04/09 02:13:06;;;;;;;34.22;22.58;;;9.20;99.90;;;;;;5074917;28;20056;-81
2023/04/09 02:15:35;;;;;;;35.35;23.33;;;8.80;99.90;;;;;;5074384;28;20080;-82
2023/04/09 02:18:01;;;;;;;30.52;22.42;;;9.20;99.90;;;;;;5075749;28;20049;-83
2023/04/09 02:20:26;;;;;;;31.85;22.92;;;9.10;99.90;;;;;;5075131;28;20040;-82
2023/04/09 02:22:52;;;;;;;32.20;24.30;;;9.10;99.90;;;;;;5075234;28;20048;-80
2023/04/09 02:25:18;;;;;;;32.45;22.58;;;9.10;99.90;;;;;;5075040;28;20041;-84
2023/04/09 02:27:44;;;;;;;31.55;24.70;;;9.10;99.90;;;;;;5075126;28;20049;-81
2023/04/09 02:30:10;;;;;;;31.25;23.55;;;9.10;99.90;;;;;;5075112;28;20041;-82
2023/04/09 02:32:35;;;;;;;36.35;23.38;;;9.10;99.90;;;;;;5090551;28;20056;-83
2023/04/09 02:35:01;;;;;;;37.35;24.80;;;9.10;99.90;;;;;;5074863;28;20450;-80
2023/04/09 02:37:27;;;;;;;35.47;22.73;;;9.00;99.90;;;;;;5090503;28;20045;-82
2023/04/09 02:39:52;;;;;;;35.50;22.85;;;9.00;99.90;;;;;;5075560;28;20135;-81
2023/04/09 02:42:19;;;;;;;33.17;23.77;;;9.00;99.90;;;;;;5090520;28;20434;-81
2023/04/09 02:44:45;;;;;;;36.65;24.45;;;9.00;99.90;;;;;;5074071;28;20060;-82
2023/04/09 02:47:10;;;;;;;36.22;23.50;;;8.90;99.90;;;;;;5074834;28;20090;-80
2023/04/09 02:49:36;;;;;;;35.08;24.13;;;8.90;99.90;;;;;;5091058;28;20048;-84
2023/04/09 02:52:02;;;;;;;35.70;24.02;;;8.80;99.90;;;;;;5074681;28;20044;-84
2023/04/09 02:54:27;;;;;;;36.33;25.98;;;8.70;99.90;;;;;;5074608;28;20044;-81
2023/04/09 02:56:53;;;;;;;36.85;23.50;;;8.70;99.90;;;;;;5074978;28;20509;-82
2023/04/09 02:59:19;;;;;;;35.75;24.38;;;8.80;99.90;;;;;;5074547;28;20067;-81
2023/04/09 03:01:44;;;;;;;44.22;27.02;;;8.80;99.90;;;;;;5074383;28;20090;-83
2023/04/09 03:04:10;;;;;;;36.88;24.67;;;8.80;99.90;;;;;;5074479;28;20083;-82
2023/04/09 03:06:35;;;;;;;35.03;24.77;;;8.80;99.90;;;;;;5074130;28;20047;-81
2023/04/09 03:09:01;;;;;;;35.38;24.23;;;8.80;99.90;;;;;;5074764;28;20051;-81
2023/04/09 03:11:27;;;;;;;34.42;24.48;;;8.80;99.90;;;;;;5074236;28;20040;-84
2023/04/09 03:13:52;;;;;;;36.75;26.55;;;8.90;99.90;;;;;;5090244;28;20484;-83
2023/04/09 03:16:18;;;;;;;31.05;22.05;;;8.90;99.90;;;;;;5074518;28;20505;-80
2023/04/09 03:18:44;;;;;;;38.17;25.95;;;8.90;99.90;;;;;;5074265;28;20529;-83
2023/04/09 03:21:09;;;;;;;39.47;24.95;;;8.90;99.90;;;;;;5073990;28;20043;-82
2023/04/09 03:23:35;;;;;;;34.45;24.63;;;8.90;99.90;;;;;;5072853;28;20123;-82
2023/04/09 03:26:05;;;;;;;40.85;25.48;;;8.90;99.90;;;;;;5073947;28;20094;-79
2023/04/09 03:28:31;;;;;;;36.33;26.08;;;8.90;99.90;;;;;;5074047;28;20040;-81
2023/04/09 03:30:57;;;;;;;34.65;24.85;;;8.90;99.90;;;;;;5073859;28;20045;-84
2023/04/09 03:33:23;;;;;;;38.08;24.65;;;9.00;99.90;;;;;;5074162;28;20044;-83
2023/04/09 03:35:49;;;;;;;35.35;23.40;;;9.00;99.90;;;;;;5074208;28;20040;-81
2023/04/09 03:38:15;;;;;;;32.53;22.23;;;9.00;99.90;;;;;;5073834;28;20036;-84
2023/04/09 03:40:41;;;;;;;40.25;26.13;;;9.10;99.90;;;;;;5073570;28;20044;-82
2023/04/09 03:43:07;;;;;;;35.75;26.17;;;9.00;99.90;;;;;;5073676;28;20048;-82
2023/04/09 03:45:32;;;;;;;35.95;25.17;;;8.90;99.90;;;;;;5075254;28;20076;-82
2023/04/09 03:47:58;;;;;;;35.33;24.75;;;8.80;99.90;;;;;;5085855;28;20052;-78
2023/04/09 03:50:24;;;;;;;35.78;23.33;;;8.70;99.90;;;;;;5100431;28;20044;-81
2023/04/09 03:52:50;;;;;;;39.55;28.15;;;8.80;99.90;;;;;;5084196;28;20056;-83
2023/04/09 03:55:15;;;;;;;41.78;24.70;;;8.80;99.90;;;;;;5098188;28;20045;-82
2023/04/09 03:57:41;;;;;;;39.88;25.77;;;8.80;99.90;;;;;;5074504;28;20056;-81
2023/04/09 04:00:08;;;;;;;35.55;23.77;;;8.90;99.90;;;;;;5074433;28;20465;-82
2023/04/09 04:02:33;;;;;;;34.35;24.15;;;8.90;99.90;;;;;;5073778;28;20120;-79
2023/04/09 04:04:59;;;;;;;33.78;22.85;;;8.90;99.90;;;;;;5072180;28;20469;-79
2023/04/09 04:07:25;;;;;;;33.80;23.88;;;9.00;99.90;;;;;;5074146;28;20079;-81
2023/04/09 04:09:50;;;;;;;38.78;27.77;;;9.00;99.90;;;;;;5073366;28;20464;-83
2023/04/09 04:12:16;;;;;;;35.88;26.25;;;9.00;99.90;;;;;;5073189;28;20044;-82
2023/04/09 04:14:42;;;;;;;36.60;26.02;;;8.90;99.90;;;;;;5073417;28;20471;-85
2023/04/09 04:17:07;;;;;;;35.28;24.02;;;8.90;99.90;;;;;;5073202;28;20044;-80
2023/04/09 04:19:33;;;;;;;39.28;25.73;;;8.80;99.90;;;;;;5073699;28;20043;-83
2023/04/09 04:21:59;;;;;;;35.17;25.65;;;8.70;99.90;;;;;;5072833;28;20145;-81
2023/04/09 04:24:24;;;;;;;38.30;25.10;;;8.60;99.90;;;;;;5073400;28;20461;-82
2023/04/09 04:26:50;;;;;;;39.95;25.45;;;8.50;99.90;;;;;;5073145;28;20041;-83
2023/04/09 04:29:16;;;;;;;38.30;25.38;;;8.40;99.90;;;;;;5089303;28;20059;-83
2023/04/09 04:31:41;;;;;;;39.42;26.02;;;8.40;99.90;;;;;;5073436;28;20514;-77
2023/04/09 04:34:07;;;;;;;36.00;24.17;;;8.40;99.90;;;;;;5073494;28;20524;-81
2023/04/09 04:36:33;;;;;;;36.90;26.35;;;8.40;99.90;;;;;;5073239;28;20467;-81
2023/04/09 04:38:58;;;;;;;40.28;26.92;;;8.40;99.90;;;;;;5089224;28;20067;-81
2023/04/09 04:41:24;;;;;;;37.97;26.67;;;8.30;99.90;;;;;;5072754;28;20040;-82
2023/04/09 04:43:50;;;;;;;38.53;27.35;;;8.30;99.90;;;;;;5071571;28;20049;-83
2023/04/09 04:46:15;;;;;;;41.42;27.48;;;8.20;99.90;;;;;;5073107;28;20095;-78
2023/04/09 04:48:41;;;;;;;37.10;25.77;;;8.20;99.90;;;;;;5072592;28;20500;-80
2023/04/09 04:51:07;;;;;;;37.10;26.42;;;8.20;99.90;;;;;;5072584;28;20471;-79
2023/04/09 04:53:32;;;;;;;33.83;26.13;;;8.20;99.90;;;;;;5072701;28;20640;-82
2023/04/09 04:55:58;;;;;;;42.35;26.90;;;8.20;99.90;;;;;;5088995;28;20068;-85
2023/04/09 04:58:24;;;;;;;35.97;25.13;;;8.20;99.90;;;;;;5088089;28;20048;-81
2023/04/09 05:00:50;;;;;;;38.28;27.48;;;8.20;99.90;;;;;;5072872;28;20499;-81
2023/04/09 05:03:16;;;;;;;37.58;26.38;;;8.20;99.90;;;;;;5072253;28;20052;-81
2023/04/09 05:05:42;;;;;;;39.17;26.77;;;8.20;99.90;;;;;;5088183;28;20084;-82
2023/04/09 05:08:07;;;;;;;37.40;27.48;;;8.10;99.90;;;;;;5072189;28;20131;-81
2023/04/09 05:10:33;;;;;;;38.92;27.33;;;8.10;99.90;;;;;;5072714;28;20087;-83
2023/04/09 05:12:59;;;;;;;42.75;28.08;;;7.70;99.90;;;;;;5088428;28;20052;-80
2023/04/09 05:15:25;;;;;;;38.88;26.98;;;8.10;99.90;;;;;;5072554;28;20078;-83
2023/04/09 05:17:50;;;;;;;39.22;27.48;;;8.20;99.90;;;;;;5072488;28;20040;-79
2023/04/09 05:20:16;;;;;;;40.53;27.98;;;8.20;99.90;;;;;;5088131;28;20132;-81
2023/04/09 05:22:42;;;;;;;42.58;28.38;;;8.20;99.90;;;;;;5070993;28;20432;-84
2023/04/09 05:25:09;;;;;;;41.92;27.85;;;8.20;99.90;;;;;;5072357;28;20393;-82
2023/04/09 05:27:35;;;;;;;38.92;26.05;;;8.20;99.90;;;;;;5072608;28;20526;-83
2023/04/09 05:30:00;;;;;;;34.55;25.70;;;8.10;99.90;;;;;;5072613;28;20044;-80
2023/04/09 05:32:26;;;;;;;35.85;28.50;;;8.20;99.90;;;;;;5072124;28;20040;-82
2023/04/09 05:34:52;;;;;;;38.95;27.50;;;8.20;99.90;;;;;;5072468;28;20066;-82
2023/04/09 05:37:17;;;;;;;42.05;28.27;;;8.20;99.90;;;;;;5071042;28;20052;-82
2023/04/09 05:39:43;;;;;;;36.65;27.45;;;8.30;99.90;;;;;;5072085;28;20049;-82
2023/04/09 05:42:09;;;;;;;41.38;26.50;;;8.30;99.90;;;;;;5072017;28;20052;-84
2023/04/09 05:44:35;;;;;;;40.65;25.58;;;8.30;99.90;;;;;;5070989;28;20045;-80
2023/04/09 05:47:00;;;;;;;39.67;24.77;;;8.30;99.90;;;;;;5071694;28;20052;-81
2023/04/09 05:49:26;;;;;;;34.90;22.75;;;8.30;99.90;;;;;;5071613;28;20071;-82
2023/04/09 05:51:52;;;;;;;32.03;22.70;;;8.30;99.90;;;;;;5088051;28;20049;-81
2023/04/09 05:54:17;;;;;;;34.28;23.13;;;8.30;99.90;;;;;;5072032;28;20089;-79
2023/04/09 05:56:43;;;;;;;34.85;23.30;;;8.30;99.90;;;;;;5071926;28;20052;-83
2023/04/09 05:59:09;;;;;;;32.63;23.98;;;8.30;99.90;;;;;;5071781;28;20052;-82
2023/04/09 06:01:35;;;;;;;33.97;24.33;;;8.20;99.90;;;;;;5071964;28;20120;-78
2023/04/09 06:04:01;;;;;;;34.80;23.15;;;8.20;99.90;;;;;;5071722;28;20048;-81
2023/04/09 06:06:26;;;;;;;32.30;22.77;;;8.20;99.90;;;;;;5071138;28;20463;-79
2023/04/09 06:08:52;;;;;;;39.25;25.35;;;8.30;99.90;;;;;;5071760;28;20055;-82
2023/04/09 06:11:18;;;;;;;34.58;23.92;;;8.30;99.90;;;;;;5071686;28;20044;-82
2023/04/09 06:13:43;;;;;;;31.10;24.08;;;8.30;99.90;;;;;;5070380;28;20049;-83
2023/04/09 06:16:09;;;;;;;29.95;22.73;;;8.30;99.90;;;;;;5071456;28;20040;-81
2023/04/09 06:18:38;;;;;;;36.38;24.98;;;8.30;99.90;;;;;;5056380;28;20048;-82
2023/04/09 06:21:05;;;;;;;34.33;22.90;;;8.30;99.90;;;;;;5075078;28;20041;-80
2023/04/09 06:23:32;;;;;;;34.13;22.85;;;8.20;99.90;;;;;;5075113;28;20052;-78
2023/04/09 06:25:58;;;;;;;40.30;26.90;;;8.30;99.90;;;;;;5075055;28;20048;-82
2023/04/09 06:28:24;;;;;;;39.03;27.70;;;8.20;99.90;;;;;;5075021;28;20074;-81
2023/04/09 06:30:50;;;;;;;41.42;27.63;;;8.30;99.90;;;;;;5075510;28;20041;-81
2023/04/09 06:33:15;;;;;;;40.53;29.20;;;8.30;99.90;;;;;;5074991;28;20048;-79
2023/04/09 06:35:41;;;;;;;46.72;33.38;;;8.30;99.90;;;;;;5075271;28;20414;-80
2023/04/09 06:38:08;;;;;;;47.63;31.80;;;8.30;99.90;;;;;;5074477;28;20051;-82
2023/04/09 06:40:37;;;;;;;51.05;34.40;;;8.30;99.90;;;;;;5073875;28;20052;-81
2023/04/09 06:43:04;;;;;;;48.17;33.83;;;8.40;99.90;;;;;;5074761;28;20049;-77
2023/04/09 06:45:31;;;;;;;46.70;29.73;;;8.40;99.90;;;;;;5074708;28;20064;-83
2023/04/09 06:47:57;;;;;;;47.47;30.10;;;8.40;99.90;;;;;;5074636;28;20049;-81
2023/04/09 06:50:24;;;;;;;46.75;29.83;;;8.40;99.90;;;;;;5079153;28;20110;-79
2023/04/09 06:52:50;;;;;;;39.88;29.33;;;8.50;99.90;;;;;;5077298;28;20124;-80
2023/04/09 06:55:16;;;;;;;45.45;28.63;;;8.60;99.90;;;;;;5075042;28;20074;-82
2023/04/09 06:57:42;;;;;;;40.97;27.85;;;8.70;99.90;;;;;;5082217;28;20048;-79
2023/04/09 07:00:08;;;;;;;41.35;28.20;;;8.80;99.90;;;;;;5081917;28;20044;-78
2023/04/09 07:02:35;;;;;;;42.47;28.38;;;8.90;99.90;;;;;;5081846;28;20036;-78
2023/04/09 07:05:02;;;;;;;40.22;28.02;;;9.10;99.90;;;;;;5081816;28;20070;-77
2023/04/09 07:07:27;;;;;;;41.00;26.95;;;9.20;99.90;;;;;;5074728;28;20188;-78
2023/04/09 07:09:53;;;;;;;33.60;23.98;;;9.40;99.90;;;;;;5075189;28;20117;-79
2023/04/09 07:12:30;;;;;;;41.75;27.50;;;9.60;99.90;;;;;;5073621;28;20055;-80
2023/04/09 07:15:00;;;;;;;43.17;27.65;;;9.70;99.90;;;;;;5074530;28;20048;-79
2023/04/09 07:17:25;;;;;;;40.17;26.65;;;9.80;99.90;;;;;;5073871;28;20057;-80
2023/04/09 07:19:51;;;;;;;43.58;28.05;;;9.80;99.90;;;;;;5074673;28;20044;-80
2023/04/09 07:22:17;;;;;;;41.30;27.35;;;9.80;99.90;;;;;;5074259;28;20179;-82
2023/04/09 07:24:43;;;;;;;40.53;25.85;;;10.00;99.90;;;;;;5074013;28;20052;-82
2023/04/09 07:27:09;;;;;;;40.40;28.50;;;10.10;99.90;;;;;;5074041;28;20105;-77
2023/04/09 07:29:35;;;;;;;39.53;26.40;;;10.20;99.90;;;;;;5073496;28;20137;-82
2023/04/09 07:32:02;;;;;;;45.45;29.45;;;10.10;99.90;;;;;;5074008;28;20078;-80
2023/04/09 07:34:28;;;;;;;41.53;27.52;;;10.10;99.90;;;;;;5073804;28;20141;-79
2023/04/09 07:36:54;;;;;;;41.17;23.90;;;10.10;99.90;;;;;;5073671;28;20044;-81
2023/04/09 07:39:21;;;;;;;34.00;24.15;;;10.20;99.90;;;;;;5073581;28;20554;-83
2023/04/09 07:41:47;;;;;;;38.30;24.17;;;10.10;99.90;;;;;;5089018;28;20040;-79
2023/04/09 07:44:13;;;;;;;37.65;25.05;;;10.20;99.90;;;;;;5073357;28;20506;-72
2023/04/09 07:46:39;;;;;;;37.08;25.05;;;10.30;99.90;;;;;;5073838;28;20063;-73
2023/04/09 07:49:04;;;;;;;39.60;25.70;;;10.50;99.90;;;;;;5073938;28;20048;-80
2023/04/09 07:51:31;;;;;;;38.10;24.35;;;10.50;99.90;;;;;;5073033;28;20470;-78
2023/04/09 07:53:57;;;;;;;37.15;22.92;;;10.60;99.90;;;;;;5073469;28;20102;-82
2023/04/09 07:56:23;;;;;;;37.88;25.75;;;10.60;99.90;;;;;;5073480;28;20090;-79
2023/04/09 07:58:49;;;;;;;37.03;22.33;;;11.00;99.90;;;;;;5073395;28;20120;-79
2023/04/09 08:01:15;;;;;;;42.00;24.85;;;11.50;99.90;;;;;;5072473;28;20505;-83
2023/04/09 08:03:41;;;;;;;41.13;26.02;;;11.70;99.90;;;;;;5073217;28;20045;-78
2023/04/09 08:06:07;;;;;;;40.03;22.35;;;11.60;99.90;;;;;;5072977;28;20036;-76
2023/04/09 08:08:33;;;;;;;41.22;23.70;;;11.30;99.90;;;;;;5089065;28;20053;-82
2023/04/09 08:10:59;;;;;;;34.75;23.77;;;11.20;99.90;;;;;;5071769;28;20053;-81
2023/04/09 08:13:24;;;;;;;36.53;24.05;;;11.10;99.90;;;;;;5073379;28;20040;-76
2023/04/09 08:15:51;;;;;;;34.03;22.15;;;11.10;99.90;;;;;;5088418;28;20414;-81
2023/04/09 08:18:16;;;;;;;33.55;22.75;;;11.20;99.90;;;;;;5073306;28;20047;-79
2023/04/09 08:20:44;;;;;;;34.83;22.90;;;11.40;99.90;;;;;;5072494;28;20399;-82
2023/04/09 08:23:12;;;;;;;32.08;19.98;;;11.70;99.90;;;;;;5072941;28;20075;-79
2023/04/09 08:25:38;;;;;;;30.98;21.48;;;12.70;99.90;;;;;;5072630;28;20048;-82
2023/04/09 08:28:04;;;;;;;36.95;20.58;;;13.20;99.90;;;;;;5073296;28;20067;-80
2023/04/09 08:30:32;;;;;;;28.33;18.70;;;13.50;99.90;;;;;;5073135;28;20048;-81
2023/04/09 08:32:59;;;;;;;32.92;19.60;;;13.80;99.90;;;;;;5072595;28;20123;-81
2023/04/09 08:35:27;;;;;;;31.55;20.45;;;14.70;99.90;;;;;;5072891;28;20048;-79
2023/04/09 08:37:55;;;;;;;38.53;19.80;;;15.00;99.90;;;;;;5072476;28;20052;-81
2023/04/09 08:40:21;;;;;;;32.40;20.48;;;15.40;99.90;;;;;;5072066;28;20501;-82
2023/04/09 08:42:53;;;;;;;29.35;20.65;;;16.10;99.90;;;;;;5072137;28;20041;-81
2023/04/09 08:45:19;;;;;;;29.20;20.38;;;16.50;99.90;;;;;;5072487;28;20048;-79
2023/04/09 08:47:46;;;;;;;34.47;20.17;;;16.40;99.90;;;;;;5072794;28;20063;-81
2023/04/09 08:50:13;;;;;;;32.20;20.25;;;16.30;99.90;;;;;;5072600;28;20055;-82
2023/04/09 08:52:39;;;;;;;28.88;19.90;;;16.40;99.90;;;;;;5072090;28;20494;-83
2023/04/09 08:55:06;;;;;;;30.05;20.38;;;15.90;99.90;;;;;;5072854;28;20060;-79
2023/04/09 08:57:41;;;;;;;26.70;18.98;;;15.10;99.90;;;;;;5072335;28;20052;-82
2023/04/09 09:00:07;;;;;;;30.17;20.38;;;14.50;99.90;;;;;;5071502;28;20397;-79
2023/04/09 09:02:33;;;;;;;30.27;18.90;;;14.10;99.90;;;;;;5072310;28;20439;-77
2023/04/09 09:04:59;;;;;;;34.78;21.80;;;13.60;99.90;;;;;;5072342;28;20036;-81
2023/04/09 09:07:28;;;;;;;32.53;21.13;;;13.70;99.90;;;;;;5072827;28;20127;-78
2023/04/09 09:09:58;;;;;;;28.23;18.90;;;14.10;99.90;;;;;;5072373;28;20072;-80
2023/04/09 09:12:32;;;;;;;32.35;20.73;;;14.10;99.90;;;;;;5071320;28;20071;-81
2023/04/09 09:14:58;;;;;;;30.33;20.58;;;14.40;99.90;;;;;;5072335;28;20133;-82
2023/04/09 09:17:24;;;;;;;26.65;18.45;;;15.40;99.90;;;;;;5087867;28;20052;-81
2023/04/09 09:19:50;;;;;;;28.98;20.63;;;15.80;99.90;;;;;;5072312;28;20055;-82
2023/04/09 09:22:15;;;;;;;31.65;18.27;;;15.80;99.90;;;;;;5072173;28;20045;-78
2023/04/09 09:24:48;;;;;;;32.35;22.63;;;16.10;99.90;;;;;;5071299;28;20128;-76
2023/04/09 09:27:35;;;;;;;33.78;22.33;;;15.50;99.90;;;;;;5073062;28;20051;-80
2023/04/09 09:30:04;;;;;;;31.33;19.63;;;15.90;99.90;;;;;;5072729;28;20389;-79
2023/04/09 09:32:33;;;;;;;29.42;18.70;;;17.00;99.90;;;;;;5072163;28;20037;-84
2023/04/09 09:35:04;;;;;;;30.60;19.55;;;17.40;99.90;;;;;;5071935;28;20051;-80
2023/04/09 09:37:31;;;;;;;25.73;18.92;;;17.00;98.80;;;;;;5071216;28;20058;-83
2023/04/09 09:39:57;;;;;;;29.30;20.52;;;16.60;99.10;;;;;;5072700;28;20045;-83
2023/04/09 09:42:23;;;;;;;29.80;19.83;;;16.30;99.90;;;;;;5071287;28;20154;-83
2023/04/09 09:44:50;;;;;;;32.70;21.52;;;16.00;99.90;;;;;;5071929;28;20060;-79
2023/04/09 09:47:18;;;;;;;28.85;19.52;;;16.70;99.90;;;;;;5088069;28;20115;-81
2023/04/09 09:49:44;;;;;;;30.25;20.35;;;17.10;99.90;;;;;;5072614;28;20041;-79
2023/04/09 09:52:10;;;;;;;30.95;21.67;;;17.30;99.90;;;;;;5072269;28;20036;-81
2023/04/09 09:54:41;;;;;;;30.50;20.92;;;16.80;99.60;;;;;;5076336;28;20060;-79
2023/04/09 09:57:13;;;;;;;28.23;18.63;;;16.80;99.80;;;;;;5076059;28;20044;-81
2023/04/09 09:59:59;;;;;;;28.87;18.37;;;17.00;99.70;;;;;;5075084;28;20041;-81
2023/04/09 10:02:29;;;;;;;27.10;18.42;;;16.70;99.10;;;;;;5075774;28;20036;-81
2023/04/09 10:04:59;;;;;;;31.73;20.48;;;16.70;99.00;;;;;;5075657;28;20088;-82
2023/04/09 10:07:26;;;;;;;30.67;19.30;;;16.20;98.80;;;;;;5079960;28;20079;-80
2023/04/09 10:09:53;;;;;;;29.40;21.10;;;16.10;99.40;;;;;;5082772;28;20048;-80
2023/04/09 10:12:24;;;;;;;31.30;20.88;;;16.60;99.30;;;;;;5078851;28;20048;-79
2023/04/09 10:14:51;;;;;;;28.45;18.98;;;16.50;98.50;;;;;;5082163;28;20090;-80
2023/04/09 10:17:18;;;;;;;30.13;19.90;;;16.90;99.10;;;;;;5077766;28;20095;-83
2023/04/09 10:20:00;;;;;;;25.92;19.00;;;17.80;98.70;;;;;;5074866;28;20089;-79
2023/04/09 10:22:30;;;;;;;31.70;20.55;;;18.50;97.90;;;;;;5075722;28;20049;-82
2023/04/09 10:24:56;;;;;;;26.52;18.52;;;18.00;97.80;;;;;;5076058;28;20040;-82
2023/04/09 10:27:22;;;;;;;28.73;20.05;;;17.50;98.00;;;;;;5074990;28;20515;-80
2023/04/09 10:29:50;;;;;;;29.15;20.67;;;17.00;98.40;;;;;;5091172;28;20099;-81
2023/04/09 10:32:21;;;;;;;24.73;17.33;;;16.80;98.90;;;;;;5075276;28;20048;-80
2023/04/09 10:34:49;;;;;;;28.77;17.30;;;17.60;98.30;;;;;;5074293;28;20150;-80
2023/04/09 10:37:24;;;;;;;25.42;18.30;;;17.70;97.30;;;;;;5075191;28;20044;-83
2023/04/09 10:39:51;;;;;;;26.25;18.83;;;18.00;96.80;;;;;;5075647;28;20044;-79
2023/04/09 10:42:26;;;;;;;29.27;19.92;;;18.60;97.20;;;;;;5074948;28;20056;-80
2023/04/09 10:45:08;;;;;;;26.27;19.67;;;18.40;97.00;;;;;;5074959;28;20057;-79
2023/04/09 10:47:36;;;;;;;26.77;20.52;;;17.70;97.10;;;;;;5074897;28;20068;-78
2023/04/09 10:50:32;;;;;;;27.95;18.90;;;17.70;97.30;;;;;;5075261;28;20080;-80
2023/04/09 10:52:59;;;;;;;24.30;18.48;;;18.20;96.90;;;;;;5074905;28;20063;-81
2023/04/09 10:55:38;;;;;;;26.05;18.35;;;18.10;97.10;;;;;;5074303;28;20051;-81
2023/04/09 10:58:13;;;;;;;28.15;20.20;;;17.30;97.00;;;;;;5074406;28;20385;-79
2023/04/09 11:00:41;;;;;;;27.00;18.02;;;16.80;97.90;;;;;;5074695;28;20055;-83
2023/04/09 11:03:19;;;;;;;25.73;17.67;;;16.40;97.70;;;;;;5074520;28;20049;-76
2023/04/09 11:05:48;;;;;;;24.55;18.27;;;16.20;98.00;;;;;;5074324;28;20129;-80
2023/04/09 11:08:15;;;;;;;27.80;18.83;;;15.90;98.30;;;;;;5073732;28;20084;-79
2023/04/09 11:10:43;;;;;;;24.58;16.83;;;15.90;98.70;;;;;;5074450;28;20507;-83
2023/04/09 11:13:16;;;;;;;25.38;16.83;;;15.80;98.80;;;;;;5074742;28;20462;-82
2023/04/09 11:15:43;;;;;;;;;;;16.00;98.90;;;;;;5074719;28;20048;-80
2023/04/09 11:18:12;;;;;;;24.35;16.65;;;16.00;98.90;;;;;;5074287;28;20011;-82
2023/04/09 11:20:39;;;;;;;23.83;16.45;;;16.00;98.60;;;;;;5074683;28;20044;-81
2023/04/09 11:23:05;;;;;;;28.40;19.35;;;15.80;98.30;;;;;;5074135;28;20040;-80
2023/04/09 11:25:32;;;;;;;26.08;17.27;;;15.80;98.60;;;;;;5074089;28;20136;-80
2023/04/09 11:28:01;;;;;;;27.92;18.50;;;15.70;99.00;;;;;;5073914;28;20076;-80
2023/04/09 11:30:27;;;;;;;22.77;17.15;;;15.70;99.00;;;;;;5074893;28;20080;-81
2023/04/09 11:32:53;;;;;;;21.90;16.70;;;15.50;98.90;;;;;;5073771;28;20048;-82
2023/04/09 11:35:21;;;;;;;25.48;18.00;;;15.40;99.30;;;;;;5073827;28;20380;-77
2023/04/09 11:37:48;;;;;;;26.05;17.40;;;15.30;99.30;;;;;;5073788;28;20068;-81
2023/04/09 11:40:23;;;;;;;29.25;18.15;;;15.30;99.30;;;;;;5073901;28;20487;-77
2023/04/09 11:42:51;;;;;;;24.23;18.08;;;15.20;99.20;;;;;;5073500;28;20124;-83
2023/04/09 11:45:18;;;;;;;28.48;18.63;;;15.10;99.20;;;;;;5071672;28;20064;-80
2023/04/09 11:47:46;;;;;;;26.65;17.77;;;15.00;99.60;;;;;;5055978;28;20459;-78
2023/04/09 11:50:13;;;;;;;26.15;17.33;;;14.90;99.80;;;;;;5073521;28;20041;-79
2023/04/09 11:52:40;;;;;;;28.58;18.38;;;14.80;99.80;;;;;;5073443;28;20087;-77
2023/04/09 11:55:07;;;;;;;26.92;16.73;;;14.70;99.90;;;;;;5072035;28;20087;-81
2023/04/09 11:57:41;;;;;;;24.58;17.80;;;14.70;99.90;;;;;;5073373;28;20052;-78
2023/04/09 12:00:12;;;;;;;23.23;16.23;;;14.70;99.90;;;;;;5073243;28;20040;-80
2023/04/09 12:02:40;;;;;;;26.83;17.10;;;14.90;99.80;;;;;;5073266;28;20473;-78
2023/04/09 12:05:11;;;;;;;25.70;17.08;;;15.10;99.60;;;;;;5072276;28;20120;-80
2023/04/09 12:07:38;;;;;;;25.38;16.23;;;15.10;99.40;;;;;;5072271;28;20041;-80
2023/04/09 12:10:09;;;;;;;26.85;17.38;;;15.20;99.50;;;;;;5073172;28;20454;-79
2023/04/09 12:12:45;;;;;;;23.15;15.75;;;15.30;99.60;;;;;;5073750;28;20040;-78
2023/04/09 12:15:20;;;;;;;22.20;15.05;;;15.30;99.40;;;;;;5073294;28;20051;-79
2023/04/09 12:17:53;;;;;;;19.92;14.30;;;15.10;99.00;;;;;;5073601;28;20067;-80
2023/04/09 12:20:33;;;;;;;23.98;15.23;;;15.00;98.80;;;;;;5072981;28;20495;-79
2023/04/09 12:23:02;;;;;;;20.30;14.25;;;15.00;98.60;;;;;;5073491;28;20425;-80
2023/04/09 12:25:28;;;;;;;20.65;14.60;;;15.00;98.90;;;;;;5072823;28;20051;-80
2023/04/09 12:27:55;;;;;;;22.05;16.17;;;15.10;98.30;;;;;;5072259;28;20473;-79
2023/04/09 12:30:22;;;;;;;27.00;16.85;;;15.40;98.50;;;;;;5072565;28;20419;-77
2023/04/09 12:32:48;;;;;;;23.92;16.02;;;15.70;98.30;;;;;;5072029;28;20495;-80
2023/04/09 12:35:14;;;;;;;22.13;16.83;;;15.80;97.90;;;;;;5072460;28;20044;-81